createdAt,value
2017-01-22T00:00:21.745Z,4.35
2017-01-22T00:01:22.811Z,4.41
2017-01-22T00:02:23.557Z,4.37
2017-01-22T00:03:24.289Z,4.41
2017-01-22T00:04:25.048Z,4.3
2017-01-22T00:05:25.809Z,4.45
2017-01-22T00:06:26.569Z,4.34
2017-01-22T00:07:27.261Z,4.32
2017-01-22T00:08:28.022Z,4.35
2017-01-22T00:09:28.768Z,4.35
2017-01-22T00:10:29.501Z,4.3
2017-01-22T00:11:30.219Z,4.34
2017-01-22T00:12:30.916Z,4.26
2017-01-22T00:13:31.636Z,4.24
2017-01-22T00:14:32.371Z,4.32
2017-01-22T00:15:32.997Z,4.34
2017-01-22T00:16:33.683Z,4.31
2017-01-22T00:17:34.356Z,4.26
2017-01-22T00:18:35.057Z,4.3
2017-01-22T00:19:35.754Z,4.37
2017-01-22T00:20:36.425Z,4.35
2017-01-22T00:21:37.103Z,4.26
2017-01-22T00:22:37.801Z,4.28
2017-01-22T00:23:38.530Z,4.3
2017-01-22T00:24:39.340Z,4.37
2017-01-22T00:25:40.016Z,4.32
2017-01-22T00:26:40.684Z,4.37
2017-01-22T00:27:41.416Z,4.38
2017-01-22T00:28:42.128Z,4.32
2017-01-22T00:29:42.844Z,4.31
2017-01-22T00:30:43.514Z,4.24
2017-01-22T00:31:44.228Z,4.31
2017-01-22T00:32:44.894Z,4.31
2017-01-22T00:33:45.570Z,4.24
2017-01-22T00:34:46.259Z,4.31
2017-01-22T00:35:46.933Z,4.24
2017-01-22T00:36:47.630Z,4.26
2017-01-22T00:37:48.316Z,4.22
2017-01-22T00:38:48.995Z,4.32
2017-01-22T00:39:49.683Z,4.28
2017-01-22T00:40:50.381Z,4.26
2017-01-22T00:41:51.050Z,4.23
2017-01-22T00:42:51.752Z,4.28
2017-01-22T00:43:52.452Z,4.2
2017-01-22T00:44:53.133Z,4.31
2017-01-22T00:45:53.831Z,4.24
2017-01-22T00:46:54.564Z,4.26
2017-01-22T00:47:55.230Z,4.24
2017-01-22T00:48:55.928Z,4.26
2017-01-22T00:49:56.609Z,4.14
2017-01-22T00:50:57.342Z,4.19
2017-01-22T00:51:58.012Z,4.2
2017-01-22T00:52:58.683Z,4.22
2017-01-22T00:53:59.369Z,4.28
2017-01-22T00:55:00.035Z,4.31
2017-01-22T00:56:00.720Z,4.26
2017-01-22T00:57:01.380Z,4.17
2017-01-22T00:58:02.104Z,4.31
2017-01-22T00:59:02.782Z,4.23
2017-01-22T01:00:03.459Z,4.22
2017-01-22T01:01:04.133Z,4.23
2017-01-22T01:02:04.799Z,4.22
2017-01-22T01:03:05.487Z,4.26
2017-01-22T01:04:06.170Z,4.31
2017-01-22T01:05:06.871Z,4.26
2017-01-22T01:06:07.688Z,4.23
2017-01-22T01:07:08.371Z,4.22
2017-01-22T01:08:09.040Z,4.34
2017-01-22T01:09:09.726Z,4.32
2017-01-22T01:10:10.406Z,4.3
2017-01-22T01:11:11.079Z,4.37
2017-01-22T01:12:11.797Z,4.35
2017-01-22T01:13:12.472Z,4.31
2017-01-22T01:14:13.169Z,4.26
2017-01-22T01:15:13.860Z,4.34
2017-01-22T01:16:14.569Z,4.28
2017-01-22T01:17:15.247Z,4.23
2017-01-22T01:18:15.912Z,4.22
2017-01-22T01:19:16.585Z,4.2
2017-01-22T01:20:17.262Z,4.17
2017-01-22T01:21:17.943Z,4.2
2017-01-22T01:22:18.613Z,4.2
2017-01-22T01:23:19.286Z,4.19
2017-01-22T01:24:19.950Z,4.22
2017-01-22T01:25:20.621Z,4.16
2017-01-22T01:26:21.297Z,4.06
2017-01-22T01:27:21.981Z,4.19
2017-01-22T01:28:22.643Z,4.13
2017-01-22T01:29:23.313Z,4.17
2017-01-22T01:30:23.993Z,4.12
2017-01-22T01:31:24.671Z,4.12
2017-01-22T01:32:25.337Z,4.08
2017-01-22T01:33:26.038Z,4.17
2017-01-22T01:34:26.705Z,4.1
2017-01-22T01:35:27.383Z,4.17
2017-01-22T01:36:28.095Z,3.95
2017-01-22T01:37:28.765Z,3.99
2017-01-22T01:38:30.714Z,4.04
2017-01-22T01:39:31.389Z,3.95
2017-01-22T01:40:32.055Z,4.01
2017-01-22T01:41:32.746Z,4.06
2017-01-22T01:42:33.443Z,4.08
2017-01-22T01:43:34.124Z,4.04
2017-01-22T01:44:34.824Z,3.98
2017-01-22T01:45:35.501Z,4.02
2017-01-22T01:46:36.185Z,4.01
2017-01-22T01:47:36.852Z,4.01
2017-01-22T01:48:37.527Z,4.01
2017-01-22T01:49:38.212Z,3.95
2017-01-22T01:50:38.925Z,3.95
2017-01-22T01:51:39.591Z,3.94
2017-01-22T01:52:40.280Z,3.92
2017-01-22T01:53:40.950Z,3.98
2017-01-22T01:54:41.622Z,3.95
2017-01-22T01:55:42.294Z,3.95
2017-01-22T01:56:42.970Z,3.98
2017-01-22T01:57:43.635Z,3.94
2017-01-22T01:58:44.328Z,3.94
2017-01-22T01:59:44.987Z,3.88
2017-01-22T02:00:45.706Z,3.94
2017-01-22T02:01:46.392Z,3.86
2017-01-22T02:02:47.056Z,3.95
2017-01-22T02:03:47.745Z,3.95
2017-01-22T02:04:48.453Z,3.92
2017-01-22T02:05:49.128Z,3.96
2017-01-22T02:06:49.793Z,3.91
2017-01-22T02:07:50.466Z,3.92
2017-01-22T02:08:51.143Z,3.88
2017-01-22T02:09:51.819Z,3.92
2017-01-22T02:10:52.496Z,3.81
2017-01-22T02:11:53.167Z,3.88
2017-01-22T02:12:53.828Z,3.77
2017-01-22T02:13:54.510Z,3.91
2017-01-22T02:14:55.174Z,3.78
2017-01-22T02:15:55.887Z,3.94
2017-01-22T02:16:56.535Z,3.86
2017-01-22T02:18:00.003Z,3.84
2017-01-22T02:19:00.686Z,3.83
2017-01-22T02:20:01.356Z,3.74
2017-01-22T02:21:02.035Z,3.68
2017-01-22T02:22:02.706Z,3.7
2017-01-22T02:23:03.378Z,3.77
2017-01-22T02:24:04.054Z,3.77
2017-01-22T02:25:04.725Z,3.77
2017-01-22T02:26:05.402Z,3.68
2017-01-22T02:27:06.070Z,3.73
2017-01-22T02:28:06.739Z,3.68
2017-01-22T02:29:07.404Z,3.76
2017-01-22T02:30:08.091Z,3.78
2017-01-22T02:31:08.754Z,3.81
2017-01-22T02:32:09.421Z,3.76
2017-01-22T02:33:10.094Z,3.8
2017-01-22T02:34:10.774Z,3.86
2017-01-22T02:35:11.444Z,3.83
2017-01-22T02:36:12.117Z,3.68
2017-01-22T02:37:12.795Z,3.76
2017-01-22T02:38:13.467Z,3.66
2017-01-22T02:39:14.133Z,3.62
2017-01-22T02:40:14.820Z,3.58
2017-01-22T02:41:15.500Z,3.51
2017-01-22T02:42:16.164Z,3.56
2017-01-22T02:43:16.820Z,3.53
2017-01-22T02:44:17.513Z,3.51
2017-01-22T02:45:18.190Z,3.47
2017-01-22T02:46:18.887Z,3.47
2017-01-22T02:47:19.543Z,3.53
2017-01-22T02:48:20.220Z,3.51
2017-01-22T02:49:20.883Z,3.44
2017-01-22T02:50:21.534Z,3.47
2017-01-22T02:51:22.215Z,3.48
2017-01-22T02:52:22.948Z,3.53
2017-01-22T02:53:23.621Z,3.56
2017-01-22T02:54:24.289Z,3.45
2017-01-22T02:55:24.970Z,3.44
2017-01-22T02:56:25.627Z,3.45
2017-01-22T02:57:26.304Z,3.41
2017-01-22T02:58:26.972Z,3.45
2017-01-22T02:59:27.642Z,3.51
2017-01-22T03:00:28.326Z,3.51
2017-01-22T03:01:28.995Z,3.53
2017-01-22T03:02:29.659Z,3.53
2017-01-22T03:03:30.348Z,3.5
2017-01-22T03:04:31.043Z,3.56
2017-01-22T03:05:31.717Z,3.5
2017-01-22T03:06:32.407Z,3.55
2017-01-22T03:07:33.083Z,3.53
2017-01-22T03:08:33.750Z,3.55
2017-01-22T03:09:34.427Z,3.45
2017-01-22T03:10:35.097Z,3.48
2017-01-22T03:11:35.816Z,3.59
2017-01-22T03:12:36.475Z,3.56
2017-01-22T03:13:37.165Z,3.55
2017-01-22T03:14:37.842Z,3.5
2017-01-22T03:15:38.557Z,3.45
2017-01-22T03:16:39.218Z,3.4
2017-01-22T03:17:39.910Z,3.32
2017-01-22T03:18:40.610Z,3.42
2017-01-22T03:19:41.336Z,3.4
2017-01-22T03:20:42.026Z,3.51
2017-01-22T03:21:42.708Z,3.44
2017-01-22T03:22:43.422Z,3.36
2017-01-22T03:23:44.087Z,3.37
2017-01-22T03:24:44.772Z,3.29
2017-01-22T03:25:45.467Z,3.36
2017-01-22T03:26:46.151Z,3.45
2017-01-22T03:27:46.828Z,3.45
2017-01-22T03:28:47.485Z,3.45
2017-01-22T03:29:48.166Z,3.34
2017-01-22T03:30:48.838Z,3.29
2017-01-22T03:31:49.535Z,3.36
2017-01-22T03:32:50.205Z,3.29
2017-01-22T03:33:50.887Z,3.37
2017-01-22T03:34:51.564Z,3.34
2017-01-22T03:35:52.235Z,3.31
2017-01-22T03:36:52.903Z,3.36
2017-01-22T03:37:53.581Z,3.37
2017-01-22T03:38:54.248Z,3.34
2017-01-22T03:39:54.917Z,3.36
2017-01-22T03:40:55.590Z,3.34
2017-01-22T03:41:56.260Z,3.32
2017-01-22T03:42:56.938Z,3.31
2017-01-22T03:43:57.634Z,3.29
2017-01-22T03:44:58.308Z,3.37
2017-01-22T03:45:58.982Z,3.4
2017-01-22T03:46:59.659Z,3.34
2017-01-22T03:48:00.335Z,3.23
2017-01-22T03:49:01.009Z,3.28
2017-01-22T03:50:01.680Z,3.31
2017-01-22T03:51:02.352Z,3.28
2017-01-22T03:52:03.025Z,3.29
2017-01-22T03:53:03.707Z,3.29
2017-01-22T03:54:04.381Z,3.29
2017-01-22T03:55:05.043Z,3.18
2017-01-22T03:56:05.735Z,3.28
2017-01-22T03:57:06.406Z,3.25
2017-01-22T03:58:07.077Z,3.26
2017-01-22T03:59:07.760Z,3.32
2017-01-22T04:00:08.431Z,3.25
2017-01-22T04:01:09.112Z,3.36
2017-01-22T04:02:09.797Z,3.28
2017-01-22T04:03:10.468Z,3.4
2017-01-22T04:04:11.151Z,3.4
2017-01-22T04:05:11.823Z,3.34
2017-01-22T04:06:12.495Z,3.44
2017-01-22T04:07:13.168Z,3.4
2017-01-22T04:08:13.839Z,3.34
2017-01-22T04:09:14.514Z,3.31
2017-01-22T04:10:15.189Z,3.29
2017-01-22T04:11:15.861Z,3.32
2017-01-22T04:12:16.536Z,3.18
2017-01-22T04:13:17.207Z,3.23
2017-01-22T04:14:17.887Z,3.23
2017-01-22T04:15:18.590Z,3.28
2017-01-22T04:16:19.268Z,3.29
2017-01-22T04:17:19.946Z,3.18
2017-01-22T04:18:20.637Z,3.21
2017-01-22T04:19:21.300Z,3.18
2017-01-22T04:20:21.967Z,3.16
2017-01-22T04:21:22.638Z,3.26
2017-01-22T04:22:23.307Z,3.29
2017-01-22T04:23:23.984Z,3.29
2017-01-22T04:24:24.661Z,3.32
2017-01-22T04:25:25.334Z,3.28
2017-01-22T04:26:26.001Z,3.19
2017-01-22T04:27:26.666Z,3.18
2017-01-22T04:28:27.333Z,3.21
2017-01-22T04:29:28.011Z,3.07
2017-01-22T04:30:28.675Z,3.05
2017-01-22T04:31:29.348Z,3.07
2017-01-22T04:32:30.027Z,3.03
2017-01-22T04:33:30.689Z,3.07
2017-01-22T04:34:31.384Z,3.13
2017-01-22T04:35:32.050Z,3.11
2017-01-22T04:36:32.735Z,3.05
2017-01-22T04:37:33.397Z,3.05
2017-01-22T04:38:34.059Z,3.08
2017-01-22T04:39:34.740Z,3.1
2017-01-22T04:40:35.420Z,3.04
2017-01-22T04:41:36.103Z,3.08
2017-01-22T04:42:36.787Z,3.07
2017-01-22T04:43:37.455Z,3.05
2017-01-22T04:44:38.129Z,3.08
2017-01-22T04:45:38.798Z,3.16
2017-01-22T04:46:39.473Z,3.16
2017-01-22T04:47:40.159Z,3.05
2017-01-22T04:48:40.835Z,3.13
2017-01-22T04:49:41.509Z,3.03
2017-01-22T04:50:42.181Z,3.03
2017-01-22T04:51:42.898Z,3.04
2017-01-22T04:52:43.581Z,3.05
2017-01-22T04:53:44.264Z,3.08
2017-01-22T04:54:44.931Z,3.07
2017-01-22T04:55:45.614Z,3.04
2017-01-22T04:56:46.305Z,3.08
2017-01-22T04:57:46.966Z,3.07
2017-01-22T04:58:47.649Z,3.04
2017-01-22T04:59:48.336Z,3.05
2017-01-22T05:00:49.019Z,3.1
2017-01-22T05:01:49.687Z,3.08
2017-01-22T05:02:50.356Z,3.19
2017-01-22T05:03:51.028Z,3.13
2017-01-22T05:04:51.701Z,3.05
2017-01-22T05:05:52.379Z,3.07
2017-01-22T05:06:53.059Z,3.11
2017-01-22T05:07:53.736Z,3.11
2017-01-22T05:08:54.406Z,3.04
2017-01-22T05:09:55.079Z,3.1
2017-01-22T05:10:55.792Z,3.04
2017-01-22T05:11:56.475Z,2.92
2017-01-22T05:12:57.145Z,2.9
2017-01-22T05:13:57.823Z,2.85
2017-01-22T05:14:58.504Z,2.72
2017-01-22T05:15:59.179Z,2.79
2017-01-22T05:16:59.859Z,2.82
2017-01-22T05:18:00.530Z,2.83
2017-01-22T05:19:01.215Z,2.82
2017-01-22T05:20:01.902Z,2.79
2017-01-22T05:21:02.577Z,2.67
2017-01-22T05:22:03.239Z,2.8
2017-01-22T05:23:03.919Z,2.77
2017-01-22T05:24:04.618Z,2.8
2017-01-22T05:25:05.305Z,2.79
2017-01-22T05:26:05.977Z,2.86
2017-01-22T05:27:06.664Z,2.79
2017-01-22T05:28:07.339Z,2.74
2017-01-22T05:29:08.004Z,2.65
2017-01-22T05:30:08.685Z,2.71
2017-01-22T05:31:09.360Z,2.77
2017-01-22T05:32:10.046Z,2.82
2017-01-22T05:33:10.709Z,2.8
2017-01-22T05:34:11.384Z,2.89
2017-01-22T05:35:12.083Z,2.83
2017-01-22T05:36:12.761Z,2.79
2017-01-22T05:37:13.442Z,2.82
2017-01-22T05:38:14.117Z,2.83
2017-01-22T05:39:14.799Z,2.74
2017-01-22T05:40:15.479Z,2.8
2017-01-22T05:41:16.158Z,2.89
2017-01-22T05:42:16.835Z,2.87
2017-01-22T05:43:17.495Z,2.89
2017-01-22T05:44:18.175Z,2.93
2017-01-22T05:45:18.857Z,2.9
2017-01-22T05:46:19.550Z,3.03
2017-01-22T05:47:20.226Z,2.92
2017-01-22T05:48:20.911Z,2.86
2017-01-22T05:49:21.585Z,2.86
2017-01-22T05:50:22.277Z,2.82
2017-01-22T05:51:22.964Z,2.87
2017-01-22T05:52:23.655Z,2.86
2017-01-22T05:53:24.336Z,2.87
2017-01-22T05:54:25.016Z,2.86
2017-01-22T05:55:25.700Z,2.97
2017-01-22T05:56:26.377Z,2.93
2017-01-22T05:57:27.042Z,2.79
2017-01-22T05:58:27.720Z,2.8
2017-01-22T05:59:28.404Z,2.8
2017-01-22T06:00:29.081Z,2.93
2017-01-22T06:01:29.749Z,2.83
2017-01-22T06:02:30.416Z,2.79
2017-01-22T06:03:31.087Z,2.8
2017-01-22T06:04:31.756Z,2.8
2017-01-22T06:05:32.438Z,2.74
2017-01-22T06:06:33.111Z,2.56
2017-01-22T06:07:33.777Z,2.64
2017-01-22T06:08:34.456Z,2.74
2017-01-22T06:09:35.129Z,2.64
2017-01-22T06:10:35.868Z,2.62
2017-01-22T06:11:36.551Z,2.61
2017-01-22T06:12:37.242Z,2.68
2017-01-22T06:13:37.915Z,2.74
2017-01-22T06:14:38.596Z,2.64
2017-01-22T06:15:39.284Z,2.6
2017-01-22T06:16:39.957Z,2.79
2017-01-22T06:17:40.647Z,2.61
2017-01-22T06:18:41.323Z,2.65
2017-01-22T06:19:42.002Z,2.61
2017-01-22T06:20:42.684Z,2.65
2017-01-22T06:21:43.379Z,2.68
2017-01-22T06:22:44.063Z,2.68
2017-01-22T06:23:44.743Z,2.75
2017-01-22T06:24:45.409Z,2.64
2017-01-22T06:25:46.084Z,2.68
2017-01-22T06:26:46.760Z,2.67
2017-01-22T06:27:47.434Z,2.75
2017-01-22T06:28:48.110Z,2.65
2017-01-22T06:29:48.782Z,2.69
2017-01-22T06:30:49.466Z,2.67
2017-01-22T06:31:50.148Z,2.75
2017-01-22T06:32:50.809Z,2.65
2017-01-22T06:33:51.477Z,2.68
2017-01-22T06:34:52.187Z,2.79
2017-01-22T06:35:52.866Z,2.72
2017-01-22T06:36:53.546Z,2.64
2017-01-22T06:37:54.212Z,2.82
2017-01-22T06:38:54.892Z,2.64
2017-01-22T06:39:55.567Z,2.65
2017-01-22T06:40:56.234Z,2.64
2017-01-22T06:41:56.895Z,2.62
2017-01-22T06:42:57.581Z,2.79
2017-01-22T06:43:58.247Z,2.71
2017-01-22T06:44:58.926Z,2.67
2017-01-22T06:45:59.608Z,2.77
2017-01-22T06:47:00.292Z,2.72
2017-01-22T06:48:00.962Z,2.64
2017-01-22T06:49:01.637Z,2.68
2017-01-22T06:50:02.336Z,2.74
2017-01-22T06:51:03.017Z,2.74
2017-01-22T06:52:03.703Z,2.69
2017-01-22T06:53:04.370Z,2.72
2017-01-22T06:54:05.043Z,2.61
2017-01-22T06:55:05.723Z,2.51
2017-01-22T06:56:06.400Z,2.67
2017-01-22T06:57:07.071Z,2.61
2017-01-22T06:58:07.748Z,2.6
2017-01-22T06:59:08.421Z,2.53
2017-01-22T07:00:09.111Z,2.46
2017-01-22T07:01:09.776Z,2.42
2017-01-22T07:02:10.459Z,2.51
2017-01-22T07:03:11.139Z,2.51
2017-01-22T07:04:11.817Z,2.67
2017-01-22T07:05:12.497Z,2.64
2017-01-22T07:06:13.174Z,2.62
2017-01-22T07:07:13.860Z,2.64
2017-01-22T07:08:14.524Z,2.54
2017-01-22T07:09:15.214Z,2.65
2017-01-22T07:10:15.879Z,2.74
2017-01-22T07:11:16.547Z,2.64
2017-01-22T07:12:17.223Z,2.68
2017-01-22T07:13:17.890Z,2.65
2017-01-22T07:14:18.578Z,2.68
2017-01-22T07:15:19.258Z,2.69
2017-01-22T07:16:19.951Z,2.62
2017-01-22T07:17:20.631Z,2.62
2017-01-22T07:18:21.295Z,2.68
2017-01-22T07:19:21.974Z,2.6
2017-01-22T07:20:22.637Z,2.71
2017-01-22T07:21:23.320Z,2.69
2017-01-22T07:22:23.978Z,2.72
2017-01-22T07:23:24.660Z,2.64
2017-01-22T07:24:25.328Z,2.74
2017-01-22T07:25:26.004Z,2.69
2017-01-22T07:26:26.694Z,2.62
2017-01-22T07:27:27.369Z,2.57
2017-01-22T07:28:28.052Z,2.67
2017-01-22T07:29:28.724Z,2.61
2017-01-22T07:30:29.404Z,2.64
2017-01-22T07:31:30.089Z,2.64
2017-01-22T07:32:30.787Z,2.62
2017-01-22T07:33:31.466Z,2.64
2017-01-22T07:34:32.141Z,2.6
2017-01-22T07:35:32.827Z,2.6
2017-01-22T07:36:33.516Z,2.67
2017-01-22T07:37:34.195Z,2.56
2017-01-22T07:38:34.864Z,2.61
2017-01-22T07:39:35.547Z,2.64
2017-01-22T07:40:36.212Z,2.64
2017-01-22T07:41:36.984Z,2.54
2017-01-22T07:42:37.653Z,2.51
2017-01-22T07:43:38.324Z,2.51
2017-01-22T07:44:39.002Z,2.49
2017-01-22T07:45:39.682Z,2.49
2017-01-22T07:46:40.396Z,2.44
2017-01-22T07:47:41.072Z,2.31
2017-01-22T07:48:41.744Z,2.35
2017-01-22T07:49:42.415Z,2.31
2017-01-22T07:50:43.100Z,2.24
2017-01-22T07:51:43.776Z,2.18
2017-01-22T07:52:44.444Z,2.28
2017-01-22T07:53:45.112Z,2.24
2017-01-22T07:54:45.787Z,2.2
2017-01-22T07:55:46.461Z,2.26
2017-01-22T07:56:47.134Z,2.17
2017-01-22T07:57:47.819Z,2.22
2017-01-22T07:58:48.504Z,2.18
2017-01-22T07:59:49.193Z,2.2
2017-01-22T08:00:49.863Z,2.22
2017-01-22T08:01:50.526Z,2.22
2017-01-22T08:02:51.252Z,2.22
2017-01-22T08:03:51.920Z,2.18
2017-01-22T08:04:52.612Z,2.14
2017-01-22T08:05:53.285Z,2.13
2017-01-22T08:06:53.949Z,2.17
2017-01-22T08:07:54.624Z,2.15
2017-01-22T08:08:55.300Z,2.13
2017-01-22T08:09:55.971Z,2.11
2017-01-22T08:10:56.651Z,2.1
2017-01-22T08:11:57.353Z,2.06
2017-01-22T08:12:58.036Z,2.08
2017-01-22T08:13:58.704Z,1.92
2017-01-22T08:14:59.382Z,2.08
2017-01-22T08:16:00.048Z,2.08
2017-01-22T08:17:00.727Z,2.1
2017-01-22T08:18:01.417Z,2.25
2017-01-22T08:19:02.096Z,2.28
2017-01-22T08:20:02.762Z,2.33
2017-01-22T08:21:03.438Z,2.39
2017-01-22T08:22:04.102Z,2.43
2017-01-22T08:23:04.778Z,2.38
2017-01-22T08:24:05.454Z,2.42
2017-01-22T08:25:06.126Z,2.36
2017-01-22T08:26:06.789Z,2.49
2017-01-22T08:27:07.468Z,2.44
2017-01-22T08:28:08.158Z,2.42
2017-01-22T08:29:08.844Z,2.43
2017-01-22T08:30:09.546Z,2.43
2017-01-22T08:31:10.206Z,2.44
2017-01-22T08:32:10.889Z,2.44
2017-01-22T08:33:11.549Z,2.49
2017-01-22T08:34:12.233Z,2.56
2017-01-22T08:35:12.900Z,2.47
2017-01-22T08:36:13.609Z,2.39
2017-01-22T08:37:14.290Z,2.51
2017-01-22T08:38:14.974Z,2.61
2017-01-22T08:39:15.648Z,2.61
2017-01-22T08:40:16.345Z,2.61
2017-01-22T08:41:17.041Z,2.61
2017-01-22T08:42:17.756Z,2.57
2017-01-22T08:43:18.442Z,2.49
2017-01-22T08:44:19.117Z,2.47
2017-01-22T08:45:19.814Z,2.44
2017-01-22T08:46:20.609Z,2.44
2017-01-22T08:47:21.265Z,2.43
2017-01-22T08:48:21.943Z,2.44
2017-01-22T08:49:22.619Z,2.46
2017-01-22T08:50:23.303Z,2.46
2017-01-22T08:51:24.010Z,2.44
2017-01-22T08:52:24.680Z,2.49
2017-01-22T08:53:25.354Z,2.36
2017-01-22T08:54:26.083Z,2.44
2017-01-22T08:55:26.759Z,2.5
2017-01-22T08:56:27.446Z,2.43
2017-01-22T08:57:28.104Z,2.44
2017-01-22T08:58:28.775Z,2.25
2017-01-22T08:59:29.471Z,2.28
2017-01-22T09:00:30.151Z,2.39
2017-01-22T09:01:30.886Z,2.38
2017-01-22T09:02:31.632Z,2.36
2017-01-22T09:03:32.331Z,2.47
2017-01-22T09:04:33.015Z,2.47
2017-01-22T09:05:33.744Z,2.49
2017-01-22T09:06:34.436Z,2.56
2017-01-22T09:07:35.108Z,2.61
2017-01-22T09:08:35.822Z,2.62
2017-01-22T09:09:36.502Z,2.64
2017-01-22T09:10:37.250Z,2.67
2017-01-22T09:11:37.913Z,2.68
2017-01-22T09:12:38.596Z,2.5
2017-01-22T09:13:39.309Z,2.39
2017-01-22T09:14:39.992Z,2.47
2017-01-22T09:15:40.720Z,2.38
2017-01-22T09:16:41.432Z,2.36
2017-01-22T09:17:42.205Z,2.44
2017-01-22T09:18:42.886Z,2.29
2017-01-22T09:19:43.588Z,2.28
2017-01-22T09:20:44.292Z,2.32
2017-01-22T09:21:44.977Z,2.26
2017-01-22T09:22:45.704Z,2.29
2017-01-22T09:23:46.408Z,2.26
2017-01-22T09:24:47.149Z,2.31
2017-01-22T09:25:47.845Z,2.36
2017-01-22T09:26:48.559Z,2.38
2017-01-22T09:27:49.238Z,2.44
2017-01-22T09:28:49.941Z,2.44
2017-01-22T09:29:50.787Z,2.53
2017-01-22T09:30:51.588Z,2.65
2017-01-22T09:31:52.316Z,2.68
2017-01-22T09:32:53.031Z,2.62
2017-01-22T09:33:53.750Z,2.69
2017-01-22T09:34:54.471Z,2.67
2017-01-22T09:35:55.180Z,2.69
2017-01-22T09:36:55.864Z,2.61
2017-01-22T09:37:56.660Z,2.65
2017-01-22T09:38:57.415Z,2.65
2017-01-22T09:39:58.074Z,2.74
2017-01-22T09:40:58.795Z,2.64
2017-01-22T09:41:59.533Z,2.65
2017-01-22T09:43:00.224Z,2.77
2017-01-22T09:44:01.012Z,2.65
2017-01-22T09:45:01.701Z,2.68
2017-01-22T09:46:02.505Z,2.69
2017-01-22T09:47:03.207Z,2.68
2017-01-22T09:48:03.906Z,2.62
2017-01-22T09:49:04.636Z,2.65
2017-01-22T09:50:05.351Z,2.71
2017-01-22T09:51:06.051Z,2.71
2017-01-22T09:52:06.766Z,2.77
2017-01-22T09:53:08.322Z,2.8
2017-01-22T09:54:09.075Z,2.71
2017-01-22T09:55:09.811Z,2.75
2017-01-22T09:56:10.551Z,2.75
2017-01-22T09:57:11.305Z,2.9
2017-01-22T09:58:12.176Z,2.86
2017-01-22T09:59:13.233Z,2.9
2017-01-22T10:00:14.084Z,2.92
2017-01-22T10:01:14.784Z,2.93
2017-01-22T10:02:15.516Z,3
2017-01-22T10:03:16.237Z,2.98
2017-01-22T10:04:16.974Z,2.86
2017-01-22T10:05:17.707Z,2.9
2017-01-22T10:06:18.454Z,2.95
2017-01-22T10:07:19.156Z,2.86
2017-01-22T10:08:19.894Z,2.75
2017-01-22T10:09:20.711Z,2.79
2017-01-22T10:10:21.370Z,2.69
2017-01-22T10:11:22.080Z,2.75
2017-01-22T10:12:22.793Z,2.68
2017-01-22T10:13:23.584Z,2.75
2017-01-22T10:14:24.285Z,2.72
2017-01-22T10:15:25.000Z,2.62
2017-01-22T10:16:25.687Z,2.64
2017-01-22T10:17:26.404Z,2.64
2017-01-22T10:18:27.128Z,2.53
2017-01-22T10:19:27.860Z,2.5
2017-01-22T10:20:28.773Z,2.43
2017-01-22T10:21:29.461Z,2.28
2017-01-22T10:22:30.199Z,2.32
2017-01-22T10:23:30.954Z,2.39
2017-01-22T10:24:31.695Z,2.53
2017-01-22T10:25:32.410Z,2.53
2017-01-22T10:26:33.116Z,2.54
2017-01-22T10:27:33.855Z,2.57
2017-01-22T10:28:34.565Z,2.49
2017-01-22T10:29:35.293Z,2.51
2017-01-22T10:30:36.025Z,2.51
2017-01-22T10:31:36.727Z,2.43
2017-01-22T10:32:37.420Z,2.49
2017-01-22T10:33:38.181Z,2.54
2017-01-22T10:34:38.903Z,2.64
2017-01-22T10:35:39.650Z,2.67
2017-01-22T10:36:40.332Z,2.67
2017-01-22T10:37:41.012Z,2.62
2017-01-22T10:38:41.794Z,2.69
2017-01-22T10:39:42.460Z,2.67
2017-01-22T10:40:43.182Z,2.62
2017-01-22T10:41:43.890Z,2.62
2017-01-22T10:42:44.613Z,2.68
2017-01-22T10:43:45.338Z,2.62
2017-01-22T10:44:46.042Z,2.61
2017-01-22T10:45:46.784Z,2.53
2017-01-22T10:46:47.551Z,2.65
2017-01-22T10:47:48.249Z,2.69
2017-01-22T10:48:48.957Z,2.64
2017-01-22T10:49:49.669Z,2.68
2017-01-22T10:50:50.431Z,2.62
2017-01-22T10:51:51.137Z,2.62
2017-01-22T10:52:51.845Z,2.71
2017-01-22T10:53:52.574Z,2.51
2017-01-22T10:54:53.278Z,2.54
2017-01-22T10:55:53.979Z,2.53
2017-01-22T10:56:54.660Z,2.6
2017-01-22T10:57:55.370Z,2.51
2017-01-22T10:58:56.076Z,2.5
2017-01-22T10:59:56.763Z,2.56
2017-01-22T11:00:57.453Z,2.64
2017-01-22T11:01:58.145Z,2.62
2017-01-22T11:02:58.829Z,2.56
2017-01-22T11:03:59.511Z,2.65
2017-01-22T11:05:00.203Z,2.57
2017-01-22T11:06:00.926Z,2.67
2017-01-22T11:07:01.624Z,2.64
2017-01-22T11:08:02.314Z,2.62
2017-01-22T11:09:02.998Z,2.85
2017-01-22T11:10:03.688Z,2.79
2017-01-22T11:11:04.371Z,2.79
2017-01-22T11:12:05.057Z,2.89
2017-01-22T11:13:05.752Z,2.77
2017-01-22T11:14:06.441Z,2.68
2017-01-22T11:15:07.121Z,2.74
2017-01-22T11:16:07.814Z,2.69
2017-01-22T11:17:08.497Z,2.67
2017-01-22T11:18:09.176Z,2.65
2017-01-22T11:19:09.914Z,2.72
2017-01-22T11:20:10.604Z,2.77
2017-01-22T11:21:11.294Z,2.62
2017-01-22T11:22:11.994Z,2.62
2017-01-22T11:23:12.689Z,2.61
2017-01-22T11:24:13.368Z,2.64
2017-01-22T11:25:14.049Z,2.61
2017-01-22T11:26:14.736Z,2.65
2017-01-22T11:27:15.415Z,2.64
2017-01-22T11:28:16.084Z,2.69
2017-01-22T11:29:16.770Z,2.69
2017-01-22T11:30:17.458Z,2.69
2017-01-22T11:31:18.166Z,2.68
2017-01-22T11:32:18.851Z,2.57
2017-01-22T11:33:19.529Z,2.68
2017-01-22T11:34:20.225Z,2.64
2017-01-22T11:35:20.905Z,2.67
2017-01-22T11:36:21.578Z,2.65
2017-01-22T11:37:22.271Z,2.64
2017-01-22T11:38:22.938Z,2.77
2017-01-22T11:39:23.634Z,2.64
2017-01-22T11:40:24.316Z,2.64
2017-01-22T11:41:25.013Z,2.64
2017-01-22T11:42:25.691Z,2.79
2017-01-22T11:43:26.357Z,2.75
2017-01-22T11:44:27.036Z,2.82
2017-01-22T11:45:27.708Z,2.87
2017-01-22T11:46:28.374Z,2.93
2017-01-22T11:47:29.076Z,3.01
2017-01-22T11:48:29.748Z,3.44
2017-01-22T11:49:30.422Z,3.56
2017-01-22T11:50:31.120Z,3.48
2017-01-22T11:51:31.789Z,3.5
2017-01-22T11:52:32.486Z,3.45
2017-01-22T11:53:33.162Z,3.31
2017-01-22T11:54:33.832Z,3.28
2017-01-22T11:55:34.525Z,3.23
2017-01-22T11:56:35.202Z,3.28
2017-01-22T11:57:35.869Z,3.08
2017-01-22T11:58:36.545Z,3.13
2017-01-22T11:59:37.251Z,3.03
2017-01-22T12:00:37.939Z,2.93
2017-01-22T12:01:38.625Z,2.92
2017-01-22T12:02:39.353Z,2.92
2017-01-22T12:03:40.034Z,3.1
2017-01-22T12:04:40.721Z,3.16
2017-01-22T12:05:41.415Z,3.13
2017-01-22T12:06:42.102Z,3.26
2017-01-22T12:07:42.764Z,3.29
2017-01-22T12:08:43.452Z,3.29
2017-01-22T12:09:44.102Z,3.26
2017-01-22T12:10:44.777Z,3.32
2017-01-22T12:11:45.447Z,3.22
2017-01-22T12:12:46.134Z,3.25
2017-01-22T12:13:46.810Z,3.26
2017-01-22T12:14:47.489Z,3.13
2017-01-22T12:15:48.165Z,3.11
2017-01-22T12:16:48.853Z,3.16
2017-01-22T12:17:49.527Z,3.08
2017-01-22T12:18:50.214Z,3.01
2017-01-22T12:19:50.930Z,2.87
2017-01-22T12:20:51.613Z,2.89
2017-01-22T12:21:52.297Z,2.95
2017-01-22T12:22:52.983Z,2.95
2017-01-22T12:23:53.681Z,2.92
2017-01-22T12:24:54.367Z,3
2017-01-22T12:25:55.049Z,2.89
2017-01-22T12:26:55.728Z,2.93
2017-01-22T12:27:56.409Z,2.98
2017-01-22T12:28:57.108Z,2.97
2017-01-22T12:29:57.800Z,2.95
2017-01-22T12:30:58.476Z,2.98
2017-01-22T12:31:59.147Z,2.92
2017-01-22T12:32:59.831Z,2.93
2017-01-22T12:34:00.566Z,2.97
2017-01-22T12:35:01.266Z,2.97
2017-01-22T12:36:01.949Z,2.92
2017-01-22T12:37:02.627Z,2.75
2017-01-22T12:38:03.318Z,2.67
2017-01-22T12:39:03.992Z,2.75
2017-01-22T12:40:04.685Z,2.72
2017-01-22T12:41:05.361Z,2.74
2017-01-22T12:42:06.027Z,2.8
2017-01-22T12:43:06.703Z,2.8
2017-01-22T12:44:07.412Z,2.86
2017-01-22T12:45:08.162Z,2.83
2017-01-22T12:46:08.829Z,2.87
2017-01-22T12:47:09.503Z,2.98
2017-01-22T12:48:10.179Z,2.97
2017-01-22T12:49:10.853Z,3.08
2017-01-22T12:50:11.526Z,3.05
2017-01-22T12:51:12.213Z,3.08
2017-01-22T12:52:12.886Z,3.04
2017-01-22T12:53:13.588Z,3.16
2017-01-22T12:54:14.309Z,3.13
2017-01-22T12:55:14.991Z,3.29
2017-01-22T12:56:15.683Z,3.34
2017-01-22T12:57:16.398Z,3.37
2017-01-22T12:58:17.078Z,3.44
2017-01-22T12:59:17.752Z,3.34
2017-01-22T13:00:18.452Z,3.36
2017-01-22T13:01:19.130Z,3.37
2017-01-22T13:02:19.823Z,3.4
2017-01-22T13:03:20.528Z,3.28
2017-01-22T13:04:21.182Z,3.29
2017-01-22T13:05:21.855Z,3.32
2017-01-22T13:06:22.529Z,3.51
2017-01-22T13:07:23.199Z,3.53
2017-01-22T13:08:23.876Z,3.5
2017-01-22T13:09:24.559Z,3.41
2017-01-22T13:10:25.234Z,3.37
2017-01-22T13:11:25.919Z,3.48
2017-01-22T13:12:26.623Z,3.44
2017-01-22T13:13:27.314Z,3.48
2017-01-22T13:14:27.992Z,3.45
2017-01-22T13:15:28.674Z,3.47
2017-01-22T13:16:29.344Z,3.47
2017-01-22T13:17:30.023Z,3.34
2017-01-22T13:18:30.703Z,3.29
2017-01-22T13:19:31.390Z,3.36
2017-01-22T13:20:32.070Z,3.4
2017-01-22T13:21:32.760Z,3.45
2017-01-22T13:22:33.476Z,3.5
2017-01-22T13:23:34.174Z,3.45
2017-01-22T13:24:34.850Z,3.41
2017-01-22T13:25:35.583Z,3.41
2017-01-22T13:26:36.373Z,3.47
2017-01-22T13:27:37.048Z,3.59
2017-01-22T13:28:37.734Z,3.51
2017-01-22T13:29:38.416Z,3.42